sensor_id;sensor_type;location;lat;lon;timestamp;pressure;altitude;pressure_sealevel;temperature;humidity
21129;BME280;10722;51.910;8.352;2023-05-24T00:00:51;101579.91;;;7.34;99.08
21129;BME280;10722;51.910;8.352;2023-05-24T00:03:37;101579.53;;;7.25;99.10
21129;BME280;10722;51.910;8.352;2023-05-24T00:06:22;101580.94;;;7.37;99.02
21129;BME280;10722;51.910;8.352;2023-05-24T00:09:07;101581.16;;;7.42;98.57
21129;BME280;10722;51.910;8.352;2023-05-24T00:11:52;101572.94;;;7.31;98.90
21129;BME280;10722;51.910;8.352;2023-05-24T00:14:38;101577.91;;;7.27;98.82
21129;BME280;10722;51.910;8.352;2023-05-24T00:17:24;101574.13;;;7.38;98.50
21129;BME280;10722;51.910;8.352;2023-05-24T00:20:09;101570.44;;;7.52;98.41
21129;BME280;10722;51.910;8.352;2023-05-24T00:22:55;101562.84;;;7.55;98.40
21129;BME280;10722;51.910;8.352;2023-05-24T00:25:41;101555.53;;;7.26;97.78
21129;BME280;10722;51.910;8.352;2023-05-24T00:28:26;101559.53;;;7.19;98.49
21129;BME280;10722;51.910;8.352;2023-05-24T00:31:12;101566.03;;;7.30;98.42
21129;BME280;10722;51.910;8.352;2023-05-24T00:33:57;101565.69;;;7.42;98.29
21129;BME280;10722;51.910;8.352;2023-05-24T00:36:42;101560.63;;;7.44;98.45
21129;BME280;10722;51.910;8.352;2023-05-24T00:39:27;101560.75;;;7.27;98.29
21129;BME280;10722;51.910;8.352;2023-05-24T00:42:13;101550.81;;;7.35;97.85
21129;BME280;10722;51.910;8.352;2023-05-24T00:44:58;101550.88;;;7.36;97.99
21129;BME280;10722;51.910;8.352;2023-05-24T00:47:45;101552.81;;;7.23;98.31
21129;BME280;10722;51.910;8.352;2023-05-24T00:50:30;101537.94;;;7.15;98.06
21129;BME280;10722;51.910;8.352;2023-05-24T00:53:15;101537.31;;;7.02;98.32
21129;BME280;10722;51.910;8.352;2023-05-24T00:56:02;101545.50;;;6.93;99.13
21129;BME280;10722;51.910;8.352;2023-05-24T00:58:47;101552.59;;;6.79;99.82
21129;BME280;10722;51.910;8.352;2023-05-24T01:01:32;101560.59;;;6.85;100.00
21129;BME280;10722;51.910;8.352;2023-05-24T01:04:18;101573.22;;;6.81;100.00
21129;BME280;10722;51.910;8.352;2023-05-24T01:13:45;101560.72;;;6.88;100.00
21129;BME280;10722;51.910;8.352;2023-05-24T01:16:43;101564.31;;;6.92;100.00
21129;BME280;10722;51.910;8.352;2023-05-24T01:20:01;101553.41;;;6.97;100.00
21129;BME280;10722;51.910;8.352;2023-05-24T01:26:13;101537.59;;;7.08;100.00
21129;BME280;10722;51.910;8.352;2023-05-24T01:29:02;101533.56;;;6.95;100.00
21129;BME280;10722;51.910;8.352;2023-05-24T01:31:48;101523.69;;;6.85;100.00
21129;BME280;10722;51.910;8.352;2023-05-24T01:34:33;101525.59;;;6.89;100.00
21129;BME280;10722;51.910;8.352;2023-05-24T01:37:19;101523.06;;;6.71;100.00
21129;BME280;10722;51.910;8.352;2023-05-24T01:40:04;101535.66;;;6.65;100.00
21129;BME280;10722;51.910;8.352;2023-05-24T01:42:59;101534.75;;;6.64;100.00
21129;BME280;10722;51.910;8.352;2023-05-24T01:48:58;101533.69;;;6.23;100.00
21129;BME280;10722;51.910;8.352;2023-05-24T01:51:50;101540.44;;;5.87;100.00
21129;BME280;10722;51.910;8.352;2023-05-24T01:54:43;101539.03;;;5.76;100.00
21129;BME280;10722;51.910;8.352;2023-05-24T01:57:29;101553.31;;;5.71;100.00
21129;BME280;10722;51.910;8.352;2023-05-24T02:00:17;101549.47;;;5.62;100.00
21129;BME280;10722;51.910;8.352;2023-05-24T02:03:03;101550.88;;;5.56;100.00
21129;BME280;10722;51.910;8.352;2023-05-24T02:05:49;101552.31;;;5.67;100.00
21129;BME280;10722;51.910;8.352;2023-05-24T02:08:34;101542.78;;;5.82;100.00
21129;BME280;10722;51.910;8.352;2023-05-24T02:11:20;101548.06;;;5.85;100.00
21129;BME280;10722;51.910;8.352;2023-05-24T02:14:05;101550.00;;;5.90;100.00
21129;BME280;10722;51.910;8.352;2023-05-24T02:16:50;101544.63;;;6.01;100.00
21129;BME280;10722;51.910;8.352;2023-05-24T02:19:35;101545.19;;;5.96;100.00
21129;BME280;10722;51.910;8.352;2023-05-24T02:22:20;101548.28;;;6.06;100.00
21129;BME280;10722;51.910;8.352;2023-05-24T02:25:06;101552.56;;;6.24;100.00
21129;BME280;10722;51.910;8.352;2023-05-24T02:27:51;101546.34;;;6.37;100.00
21129;BME280;10722;51.910;8.352;2023-05-24T02:30:36;101543.38;;;6.47;100.00
21129;BME280;10722;51.910;8.352;2023-05-24T02:33:21;101530.97;;;6.56;100.00
21129;BME280;10722;51.910;8.352;2023-05-24T02:36:06;101537.81;;;6.38;100.00
21129;BME280;10722;51.910;8.352;2023-05-24T02:38:52;101538.16;;;6.27;100.00
21129;BME280;10722;51.910;8.352;2023-05-24T02:41:38;101541.47;;;6.25;100.00
21129;BME280;10722;51.910;8.352;2023-05-24T02:44:23;101538.75;;;6.22;100.00
21129;BME280;10722;51.910;8.352;2023-05-24T02:47:08;101537.28;;;6.09;100.00
21129;BME280;10722;51.910;8.352;2023-05-24T02:49:54;101529.94;;;5.99;100.00
21129;BME280;10722;51.910;8.352;2023-05-24T02:52:39;101537.63;;;5.99;100.00
21129;BME280;10722;51.910;8.352;2023-05-24T02:55:24;101532.66;;;6.02;100.00
21129;BME280;10722;51.910;8.352;2023-05-24T02:58:10;101539.56;;;6.03;100.00
21129;BME280;10722;51.910;8.352;2023-05-24T03:00:55;101545.28;;;5.97;100.00
21129;BME280;10722;51.910;8.352;2023-05-24T03:03:40;101550.03;;;6.07;100.00
21129;BME280;10722;51.910;8.352;2023-05-24T03:06:25;101540.50;;;6.05;100.00
21129;BME280;10722;51.910;8.352;2023-05-24T03:09:10;101539.72;;;5.90;100.00
21129;BME280;10722;51.910;8.352;2023-05-24T03:11:55;101540.72;;;5.75;100.00
21129;BME280;10722;51.910;8.352;2023-05-24T03:14:40;101533.78;;;5.56;100.00
21129;BME280;10722;51.910;8.352;2023-05-24T03:17:26;101538.16;;;5.25;100.00
21129;BME280;10722;51.910;8.352;2023-05-24T03:20:11;101543.84;;;5.19;100.00
21129;BME280;10722;51.910;8.352;2023-05-24T03:22:57;101552.00;;;5.12;100.00
21129;BME280;10722;51.910;8.352;2023-05-24T03:25:41;101554.25;;;5.22;100.00
21129;BME280;10722;51.910;8.352;2023-05-24T03:28:26;101555.28;;;5.26;100.00
21129;BME280;10722;51.910;8.352;2023-05-24T03:31:12;101560.91;;;5.35;100.00
21129;BME280;10722;51.910;8.352;2023-05-24T03:33:57;101563.56;;;5.53;100.00
21129;BME280;10722;51.910;8.352;2023-05-24T03:36:42;101557.53;;;5.52;100.00
21129;BME280;10722;51.910;8.352;2023-05-24T03:39:28;101565.16;;;5.51;100.00
21129;BME280;10722;51.910;8.352;2023-05-24T03:42:13;101560.47;;;5.60;100.00
21129;BME280;10722;51.910;8.352;2023-05-24T03:44:58;101563.13;;;5.61;100.00
21129;BME280;10722;51.910;8.352;2023-05-24T03:47:44;101564.16;;;5.65;100.00
21129;BME280;10722;51.910;8.352;2023-05-24T03:50:29;101568.47;;;5.82;100.00
21129;BME280;10722;51.910;8.352;2023-05-24T03:53:14;101572.00;;;5.84;100.00
21129;BME280;10722;51.910;8.352;2023-05-24T03:56:00;101568.94;;;5.92;100.00
21129;BME280;10722;51.910;8.352;2023-05-24T03:58:46;101561.97;;;6.05;100.00
21129;BME280;10722;51.910;8.352;2023-05-24T04:01:31;101559.81;;;6.15;100.00
21129;BME280;10722;51.910;8.352;2023-05-24T04:04:19;101562.78;;;6.22;100.00
21129;BME280;10722;51.910;8.352;2023-05-24T04:07:05;101556.53;;;6.17;100.00
21129;BME280;10722;51.910;8.352;2023-05-24T04:09:50;101561.22;;;6.26;100.00
21129;BME280;10722;51.910;8.352;2023-05-24T04:12:35;101547.41;;;6.24;100.00
21129;BME280;10722;51.910;8.352;2023-05-24T04:15:21;101549.69;;;6.18;100.00
21129;BME280;10722;51.910;8.352;2023-05-24T04:18:09;101542.78;;;5.99;100.00
21129;BME280;10722;51.910;8.352;2023-05-24T04:20:54;101555.13;;;5.90;100.00
21129;BME280;10722;51.910;8.352;2023-05-24T04:23:39;101565.25;;;5.87;100.00
21129;BME280;10722;51.910;8.352;2023-05-24T04:26:25;101551.84;;;5.92;100.00
21129;BME280;10722;51.910;8.352;2023-05-24T04:29:10;101567.53;;;5.80;100.00
21129;BME280;10722;51.910;8.352;2023-05-24T04:31:56;101560.41;;;5.75;100.00
21129;BME280;10722;51.910;8.352;2023-05-24T04:34:41;101559.00;;;5.81;100.00
21129;BME280;10722;51.910;8.352;2023-05-24T04:37:27;101554.41;;;5.92;100.00
21129;BME280;10722;51.910;8.352;2023-05-24T04:40:12;101554.84;;;6.00;100.00
21129;BME280;10722;51.910;8.352;2023-05-24T04:42:58;101558.28;;;6.00;100.00
21129;BME280;10722;51.910;8.352;2023-05-24T04:45:43;101559.09;;;6.17;100.00
21129;BME280;10722;51.910;8.352;2023-05-24T04:48:28;101561.81;;;6.38;100.00
21129;BME280;10722;51.910;8.352;2023-05-24T04:51:14;101559.25;;;6.56;100.00
21129;BME280;10722;51.910;8.352;2023-05-24T04:53:59;101550.53;;;6.72;100.00
21129;BME280;10722;51.910;8.352;2023-05-24T04:56:44;101550.75;;;6.77;100.00
21129;BME280;10722;51.910;8.352;2023-05-24T04:59:29;101562.00;;;6.98;100.00
21129;BME280;10722;51.910;8.352;2023-05-24T05:02:15;101556.88;;;7.17;100.00
21129;BME280;10722;51.910;8.352;2023-05-24T05:05:00;101568.53;;;7.29;100.00
21129;BME280;10722;51.910;8.352;2023-05-24T05:07:45;101553.91;;;7.47;100.00
21129;BME280;10722;51.910;8.352;2023-05-24T05:10:31;101562.84;;;7.55;100.00
21129;BME280;10722;51.910;8.352;2023-05-24T05:13:16;101551.06;;;7.60;100.00
21129;BME280;10722;51.910;8.352;2023-05-24T05:16:02;101546.56;;;7.56;100.00
21129;BME280;10722;51.910;8.352;2023-05-24T05:18:47;101533.47;;;7.71;100.00
21129;BME280;10722;51.910;8.352;2023-05-24T05:21:33;101531.16;;;7.77;100.00
21129;BME280;10722;51.910;8.352;2023-05-24T05:24:18;101529.78;;;7.85;100.00
21129;BME280;10722;51.910;8.352;2023-05-24T05:27:04;101529.28;;;7.94;100.00
21129;BME280;10722;51.910;8.352;2023-05-24T05:29:49;101529.13;;;7.91;100.00
21129;BME280;10722;51.910;8.352;2023-05-24T05:32:36;101524.75;;;7.89;100.00
21129;BME280;10722;51.910;8.352;2023-05-24T05:35:22;101526.31;;;8.06;100.00
21129;BME280;10722;51.910;8.352;2023-05-24T05:38:07;101530.22;;;8.17;100.00
21129;BME280;10722;51.910;8.352;2023-05-24T05:40:52;101520.63;;;8.36;100.00
21129;BME280;10722;51.910;8.352;2023-05-24T05:43:38;101516.09;;;8.30;100.00
21129;BME280;10722;51.910;8.352;2023-05-24T05:46:23;101519.44;;;8.48;100.00
21129;BME280;10722;51.910;8.352;2023-05-24T05:49:09;101513.78;;;8.59;100.00
21129;BME280;10722;51.910;8.352;2023-05-24T05:51:54;101510.53;;;8.63;100.00
21129;BME280;10722;51.910;8.352;2023-05-24T05:54:39;101505.69;;;8.72;100.00
21129;BME280;10722;51.910;8.352;2023-05-24T05:57:25;101505.06;;;8.55;100.00
21129;BME280;10722;51.910;8.352;2023-05-24T06:00:11;101515.91;;;8.69;100.00
21129;BME280;10722;51.910;8.352;2023-05-24T06:02:56;101511.59;;;8.68;100.00
21129;BME280;10722;51.910;8.352;2023-05-24T06:05:42;101506.84;;;8.79;100.00
21129;BME280;10722;51.910;8.352;2023-05-24T06:08:27;101524.88;;;9.01;100.00
21129;BME280;10722;51.910;8.352;2023-05-24T06:11:13;101517.28;;;9.30;100.00
21129;BME280;10722;51.910;8.352;2023-05-24T06:13:58;101512.31;;;9.36;100.00
21129;BME280;10722;51.910;8.352;2023-05-24T06:16:43;101513.50;;;9.46;100.00
21129;BME280;10722;51.910;8.352;2023-05-24T06:19:29;101506.56;;;9.19;100.00
21129;BME280;10722;51.910;8.352;2023-05-24T06:22:14;101511.28;;;9.31;100.00
21129;BME280;10722;51.910;8.352;2023-05-24T06:24:59;101516.16;;;9.47;100.00
21129;BME280;10722;51.910;8.352;2023-05-24T06:27:45;101506.31;;;9.61;100.00
21129;BME280;10722;51.910;8.352;2023-05-24T06:30:31;101491.00;;;9.41;100.00
21129;BME280;10722;51.910;8.352;2023-05-24T06:33:16;101499.13;;;9.52;100.00
21129;BME280;10722;51.910;8.352;2023-05-24T06:36:01;101491.16;;;9.46;100.00
21129;BME280;10722;51.910;8.352;2023-05-24T06:38:47;101499.34;;;9.34;100.00
21129;BME280;10722;51.910;8.352;2023-05-24T06:41:32;101504.59;;;9.36;100.00
21129;BME280;10722;51.910;8.352;2023-05-24T06:44:18;101515.88;;;9.63;100.00
21129;BME280;10722;51.910;8.352;2023-05-24T06:47:03;101508.06;;;9.62;100.00
21129;BME280;10722;51.910;8.352;2023-05-24T06:49:49;101514.88;;;9.60;100.00
21129;BME280;10722;51.910;8.352;2023-05-24T06:52:35;101510.22;;;9.50;100.00
21129;BME280;10722;51.910;8.352;2023-05-24T06:55:20;101516.78;;;9.65;100.00
21129;BME280;10722;51.910;8.352;2023-05-24T06:58:05;101522.28;;;9.75;100.00
21129;BME280;10722;51.910;8.352;2023-05-24T07:00:50;101522.09;;;9.96;100.00
21129;BME280;10722;51.910;8.352;2023-05-24T07:03:36;101510.31;;;10.04;100.00
21129;BME280;10722;51.910;8.352;2023-05-24T07:06:21;101509.72;;;10.13;100.00
21129;BME280;10722;51.910;8.352;2023-05-24T07:09:07;101506.34;;;10.15;100.00
21129;BME280;10722;51.910;8.352;2023-05-24T07:11:52;101513.94;;;10.36;100.00
21129;BME280;10722;51.910;8.352;2023-05-24T07:14:37;101515.00;;;10.43;100.00
21129;BME280;10722;51.910;8.352;2023-05-24T07:17:23;101505.78;;;9.97;100.00
21129;BME280;10722;51.910;8.352;2023-05-24T07:20:09;101517.69;;;9.93;100.00
21129;BME280;10722;51.910;8.352;2023-05-24T07:22:54;101531.44;;;10.18;100.00
21129;BME280;10722;51.910;8.352;2023-05-24T07:25:40;101528.19;;;9.98;100.00
21129;BME280;10722;51.910;8.352;2023-05-24T07:28:24;101528.88;;;9.92;100.00
21129;BME280;10722;51.910;8.352;2023-05-24T07:31:10;101532.13;;;9.86;100.00
21129;BME280;10722;51.910;8.352;2023-05-24T07:33:55;101532.72;;;10.05;100.00
21129;BME280;10722;51.910;8.352;2023-05-24T07:36:41;101540.31;;;10.53;100.00
21129;BME280;10722;51.910;8.352;2023-05-24T07:39:26;101532.50;;;10.80;100.00
21129;BME280;10722;51.910;8.352;2023-05-24T07:42:12;101512.25;;;10.95;98.44
21129;BME280;10722;51.910;8.352;2023-05-24T07:44:57;101490.47;;;11.19;96.88
21129;BME280;10722;51.910;8.352;2023-05-24T07:47:42;101483.28;;;11.42;95.92
21129;BME280;10722;51.910;8.352;2023-05-24T07:50:28;101482.34;;;11.72;94.67
21129;BME280;10722;51.910;8.352;2023-05-24T07:53:14;101465.19;;;12.13;93.59
21129;BME280;10722;51.910;8.352;2023-05-24T07:55:59;101444.50;;;12.55;91.62
21129;BME280;10722;51.910;8.352;2023-05-24T07:58:45;101402.66;;;12.40;88.64
21129;BME280;10722;51.910;8.352;2023-05-24T08:01:31;101380.56;;;12.17;87.08
21129;BME280;10722;51.910;8.352;2023-05-24T08:04:16;101401.88;;;12.05;87.52
21129;BME280;10722;51.910;8.352;2023-05-24T08:07:01;101415.09;;;12.16;87.91
21129;BME280;10722;51.910;8.352;2023-05-24T08:09:46;101380.00;;;11.92;85.75
21129;BME280;10722;51.910;8.352;2023-05-24T08:12:31;101391.56;;;12.06;85.98
21129;BME280;10722;51.910;8.352;2023-05-24T08:15:17;101414.06;;;12.07;86.99
21129;BME280;10722;51.910;8.352;2023-05-24T08:18:02;101419.34;;;12.12;86.72
21129;BME280;10722;51.910;8.352;2023-05-24T08:20:47;101396.13;;;12.18;85.45
21129;BME280;10722;51.910;8.352;2023-05-24T08:23:32;101388.63;;;12.30;84.71
21129;BME280;10722;51.910;8.352;2023-05-24T08:26:18;101378.09;;;12.24;83.72
21129;BME280;10722;51.910;8.352;2023-05-24T08:29:03;101382.16;;;12.11;83.46
21129;BME280;10722;51.910;8.352;2023-05-24T08:31:49;101384.75;;;12.11;83.54
21129;BME280;10722;51.910;8.352;2023-05-24T08:34:35;101385.19;;;11.92;83.19
21129;BME280;10722;51.910;8.352;2023-05-24T08:37:22;101398.66;;;12.14;83.07
21129;BME280;10722;51.910;8.352;2023-05-24T08:40:08;101416.28;;;12.30;83.76
21129;BME280;10722;51.910;8.352;2023-05-24T08:42:54;101395.75;;;12.41;82.90
21129;BME280;10722;51.910;8.352;2023-05-24T08:45:44;101397.91;;;12.62;82.70
21129;BME280;10722;51.910;8.352;2023-05-24T08:48:30;101395.72;;;12.82;82.11
21129;BME280;10722;51.910;8.352;2023-05-24T08:51:16;101393.44;;;12.98;81.63
21129;BME280;10722;51.910;8.352;2023-05-24T08:54:03;101363.94;;;12.96;80.26
21129;BME280;10722;51.910;8.352;2023-05-24T08:56:50;101377.94;;;13.05;80.46
21129;BME280;10722;51.910;8.352;2023-05-24T08:59:35;101349.53;;;12.67;79.26
21129;BME280;10722;51.910;8.352;2023-05-24T09:02:21;101342.28;;;12.47;78.88
21129;BME280;10722;51.910;8.352;2023-05-24T09:05:15;101352.66;;;12.49;79.04
21129;BME280;10722;51.910;8.352;2023-05-24T09:08:01;101390.06;;;12.59;80.18
21129;BME280;10722;51.910;8.352;2023-05-24T09:10:47;101393.09;;;12.82;80.19
21129;BME280;10722;51.910;8.352;2023-05-24T09:13:39;101392.63;;;13.02;79.37
21129;BME280;10722;51.910;8.352;2023-05-24T09:16:25;101384.06;;;13.08;78.62
21129;BME280;10722;51.910;8.352;2023-05-24T09:19:10;101362.66;;;13.21;77.80
21129;BME280;10722;51.910;8.352;2023-05-24T09:21:56;101361.88;;;13.26;77.50
21129;BME280;10722;51.910;8.352;2023-05-24T09:24:42;101359.72;;;13.03;77.38
21129;BME280;10722;51.910;8.352;2023-05-24T09:27:31;101376.41;;;13.17;77.54
21129;BME280;10722;51.910;8.352;2023-05-24T09:30:17;101385.75;;;13.06;77.73
21129;BME280;10722;51.910;8.352;2023-05-24T09:33:06;101394.63;;;12.72;77.89
21129;BME280;10722;51.910;8.352;2023-05-24T09:35:56;101453.13;;;12.54;80.85
21129;BME280;10722;51.910;8.352;2023-05-24T09:38:42;101485.09;;;12.52;81.86
21129;BME280;10722;51.910;8.352;2023-05-24T09:41:27;101477.72;;;12.31;82.21
21129;BME280;10722;51.910;8.352;2023-05-24T09:44:13;101495.09;;;12.35;83.10
21129;BME280;10722;51.910;8.352;2023-05-24T09:47:02;101494.53;;;12.50;83.61
21129;BME280;10722;51.910;8.352;2023-05-24T09:49:50;101513.56;;;12.49;84.30
21129;BME280;10722;51.910;8.352;2023-05-24T09:52:37;101486.75;;;12.50;83.07
21129;BME280;10722;51.910;8.352;2023-05-24T09:55:22;101493.47;;;12.40;83.53
21129;BME280;10722;51.910;8.352;2023-05-24T09:58:08;101500.91;;;12.63;83.84
21129;BME280;10722;51.910;8.352;2023-05-24T10:01:02;101486.13;;;12.59;83.32
21129;BME280;10722;51.910;8.352;2023-05-24T10:03:55;101462.81;;;12.62;82.56
21129;BME280;10722;51.910;8.352;2023-05-24T10:06:41;101453.53;;;12.74;81.51
21129;BME280;10722;51.910;8.352;2023-05-24T10:09:30;101452.19;;;12.93;81.89
21129;BME280;10722;51.910;8.352;2023-05-24T10:12:16;101429.03;;;13.06;80.43
21129;BME280;10722;51.910;8.352;2023-05-24T10:15:02;101432.81;;;13.23;79.57
21129;BME280;10722;51.910;8.352;2023-05-24T10:17:48;101401.69;;;13.24;77.94
21129;BME280;10722;51.910;8.352;2023-05-24T10:20:33;101392.59;;;13.01;77.70
21129;BME280;10722;51.910;8.352;2023-05-24T10:23:19;101375.50;;;13.12;76.08
21129;BME280;10722;51.910;8.352;2023-05-24T10:26:08;101378.91;;;13.11;76.22
21129;BME280;10722;51.910;8.352;2023-05-24T10:28:57;101405.91;;;13.19;76.72
21129;BME280;10722;51.910;8.352;2023-05-24T10:31:45;101391.13;;;13.17;76.22
21129;BME280;10722;51.910;8.352;2023-05-24T10:34:30;101378.75;;;13.02;75.92
21129;BME280;10722;51.910;8.352;2023-05-24T10:37:16;101382.84;;;12.89;75.85
21129;BME280;10722;51.910;8.352;2023-05-24T10:40:03;101375.69;;;12.77;75.42
21129;BME280;10722;51.910;8.352;2023-05-24T10:42:48;101387.88;;;12.80;75.89
21129;BME280;10722;51.910;8.352;2023-05-24T10:45:38;101397.50;;;12.84;75.91
21129;BME280;10722;51.910;8.352;2023-05-24T10:54:18;101423.13;;;12.69;76.86
21129;BME280;10722;51.910;8.352;2023-05-24T10:57:05;101442.13;;;12.66;77.97
21129;BME280;10722;51.910;8.352;2023-05-24T10:59:50;101470.50;;;12.57;78.81
21129;BME280;10722;51.910;8.352;2023-05-24T11:02:36;101446.66;;;12.36;78.23
21129;BME280;10722;51.910;8.352;2023-05-24T11:05:22;101448.81;;;12.14;78.26
21129;BME280;10722;51.910;8.352;2023-05-24T11:08:08;101463.19;;;12.00;79.14
21129;BME280;10722;51.910;8.352;2023-05-24T11:11:06;101494.78;;;12.21;80.52
21129;BME280;10722;51.910;8.352;2023-05-24T11:14:08;101523.03;;;12.47;81.96
21129;BME280;10722;51.910;8.352;2023-05-24T11:16:54;101520.56;;;12.51;82.46
21129;BME280;10722;51.910;8.352;2023-05-24T11:20:06;101525.88;;;12.57;82.95
21129;BME280;10722;51.910;8.352;2023-05-24T11:22:52;101524.25;;;12.63;83.15
21129;BME280;10722;51.910;8.352;2023-05-24T11:25:37;101533.84;;;12.65;84.31
21129;BME280;10722;51.910;8.352;2023-05-24T11:28:23;101519.47;;;12.81;83.76
21129;BME280;10722;51.910;8.352;2023-05-24T11:31:09;101521.81;;;13.11;83.04
21129;BME280;10722;51.910;8.352;2023-05-24T11:33:54;101484.44;;;13.05;80.91
21129;BME280;10722;51.910;8.352;2023-05-24T11:36:40;101493.66;;;12.89;82.31
21129;BME280;10722;51.910;8.352;2023-05-24T11:39:33;101461.03;;;12.59;81.11
21129;BME280;10722;51.910;8.352;2023-05-24T11:42:20;101474.53;;;12.85;80.99
21129;BME280;10722;51.910;8.352;2023-05-24T11:45:07;101499.69;;;12.88;82.05
21129;BME280;10722;51.910;8.352;2023-05-24T11:47:54;101481.84;;;13.06;81.23
21129;BME280;10722;51.910;8.352;2023-05-24T11:50:41;101510.28;;;13.41;81.77
21129;BME280;10722;51.910;8.352;2023-05-24T11:53:34;101499.56;;;13.73;81.86
21129;BME280;10722;51.910;8.352;2023-05-24T11:56:19;101452.56;;;13.60;79.23
21129;BME280;10722;51.910;8.352;2023-05-24T11:59:13;101430.78;;;13.54;78.01
21129;BME280;10722;51.910;8.352;2023-05-24T12:02:04;101395.94;;;12.94;77.22
21129;BME280;10722;51.910;8.352;2023-05-24T12:04:50;101448.50;;;13.26;79.10
21129;BME280;10722;51.910;8.352;2023-05-24T12:07:35;101439.25;;;13.40;78.40
21129;BME280;10722;51.910;8.352;2023-05-24T12:10:20;101463.63;;;13.49;79.58
21129;BME280;10722;51.910;8.352;2023-05-24T12:13:19;101432.31;;;13.42;78.27
21129;BME280;10722;51.910;8.352;2023-05-24T12:16:05;101419.78;;;13.68;77.38
21129;BME280;10722;51.910;8.352;2023-05-24T12:18:51;101412.28;;;13.88;76.43
21129;BME280;10722;51.910;8.352;2023-05-24T12:21:51;101406.41;;;14.03;75.97
21129;BME280;10722;51.910;8.352;2023-05-24T12:24:39;101407.59;;;14.27;75.67
21129;BME280;10722;51.910;8.352;2023-05-24T12:27:26;101390.09;;;14.13;74.69
21129;BME280;10722;51.910;8.352;2023-05-24T12:30:15;101413.19;;;13.92;75.66
21129;BME280;10722;51.910;8.352;2023-05-24T12:33:01;101373.03;;;13.73;74.09
21129;BME280;10722;51.910;8.352;2023-05-24T12:35:47;101394.78;;;13.78;74.71
21129;BME280;10722;51.910;8.352;2023-05-24T12:38:34;101399.66;;;13.58;75.37
21129;BME280;10722;51.910;8.352;2023-05-24T12:41:20;101436.28;;;13.72;76.62
21129;BME280;10722;51.910;8.352;2023-05-24T12:44:25;101432.81;;;13.72;76.61
21129;BME280;10722;51.910;8.352;2023-05-24T12:47:11;101413.34;;;13.47;75.98
21129;BME280;10722;51.910;8.352;2023-05-24T12:49:56;101452.25;;;13.40;78.04
21129;BME280;10722;51.910;8.352;2023-05-24T12:52:41;101475.59;;;13.39;79.13
21129;BME280;10722;51.910;8.352;2023-05-24T12:55:27;101483.72;;;13.59;79.02
21129;BME280;10722;51.910;8.352;2023-05-24T12:58:13;101465.28;;;13.43;78.17
21129;BME280;10722;51.910;8.352;2023-05-24T13:00:58;101446.91;;;13.34;77.75
21129;BME280;10722;51.910;8.352;2023-05-24T13:03:43;101452.28;;;13.45;77.81
21129;BME280;10722;51.910;8.352;2023-05-24T13:06:29;101446.44;;;13.57;77.51
21129;BME280;10722;51.910;8.352;2023-05-24T13:09:15;101437.94;;;13.67;77.11
21129;BME280;10722;51.910;8.352;2023-05-24T13:12:00;101452.41;;;13.51;77.77
21129;BME280;10722;51.910;8.352;2023-05-24T13:14:45;101442.19;;;13.60;77.30
21129;BME280;10722;51.910;8.352;2023-05-24T13:17:30;101430.72;;;13.49;76.69
21129;BME280;10722;51.910;8.352;2023-05-24T13:20:16;101435.88;;;13.48;76.80
21129;BME280;10722;51.910;8.352;2023-05-24T13:23:01;101462.59;;;13.39;77.85
21129;BME280;10722;51.910;8.352;2023-05-24T13:25:46;101466.97;;;13.41;78.47
21129;BME280;10722;51.910;8.352;2023-05-24T13:28:32;101478.22;;;13.40;78.79
21129;BME280;10722;51.910;8.352;2023-05-24T13:31:18;101489.41;;;13.36;79.90
21129;BME280;10722;51.910;8.352;2023-05-24T13:34:04;101495.63;;;13.44;80.51
21129;BME280;10722;51.910;8.352;2023-05-24T13:36:50;101477.25;;;13.35;79.55
21129;BME280;10722;51.910;8.352;2023-05-24T13:39:36;101482.28;;;13.26;79.84
21129;BME280;10722;51.910;8.352;2023-05-24T13:42:22;101502.41;;;13.36;80.80
21129;BME280;10722;51.910;8.352;2023-05-24T13:45:08;101491.28;;;13.45;80.13
21129;BME280;10722;51.910;8.352;2023-05-24T13:47:53;101457.28;;;13.33;79.20
21129;BME280;10722;51.910;8.352;2023-05-24T13:50:39;101448.44;;;13.24;78.33
21129;BME280;10722;51.910;8.352;2023-05-24T13:53:26;101472.47;;;13.58;79.21
21129;BME280;10722;51.910;8.352;2023-05-24T13:56:11;101459.59;;;13.66;78.39
21129;BME280;10722;51.910;8.352;2023-05-24T13:58:57;101431.19;;;13.78;76.96
21129;BME280;10722;51.910;8.352;2023-05-24T14:01:43;101427.31;;;13.52;76.93
21129;BME280;10722;51.910;8.352;2023-05-24T14:04:29;101434.88;;;12.92;77.92
21129;BME280;10722;51.910;8.352;2023-05-24T14:07:14;101459.69;;;12.37;79.36
21129;BME280;10722;51.910;8.352;2023-05-24T14:09:59;101486.56;;;12.41;80.46
21129;BME280;10722;51.910;8.352;2023-05-24T14:12:45;101510.88;;;12.85;81.51
21129;BME280;10722;51.910;8.352;2023-05-24T14:15:43;101518.38;;;13.12;81.50
21129;BME280;10722;51.910;8.352;2023-05-24T14:18:29;101509.22;;;13.31;80.98
21129;BME280;10722;51.910;8.352;2023-05-24T14:21:15;101495.72;;;13.49;80.43
21129;BME280;10722;51.910;8.352;2023-05-24T14:24:00;101462.97;;;13.60;78.91
21129;BME280;10722;51.910;8.352;2023-05-24T14:26:45;101483.25;;;13.81;79.25
21129;BME280;10722;51.910;8.352;2023-05-24T14:29:30;101471.28;;;13.93;78.40
21129;BME280;10722;51.910;8.352;2023-05-24T14:32:15;101486.03;;;13.94;79.39
21129;BME280;10722;51.910;8.352;2023-05-24T14:35:00;101470.47;;;13.95;78.83
21129;BME280;10722;51.910;8.352;2023-05-24T14:37:49;101440.97;;;13.95;77.63
21129;BME280;10722;51.910;8.352;2023-05-24T14:40:34;101430.53;;;13.93;77.16
21129;BME280;10722;51.910;8.352;2023-05-24T14:43:20;101461.56;;;13.82;78.92
21129;BME280;10722;51.910;8.352;2023-05-24T14:46:05;101457.38;;;13.90;78.46
21129;BME280;10722;51.910;8.352;2023-05-24T14:48:50;101460.75;;;13.83;78.18